M I D A S
Marine Information and Data Acquisition System
Tripno 489 of the Zeeleeuw from 2003-04-10 06:47:10 to 2003-04-10 14:06:13
Back to CruiseResearch ActivitiesStationsMapUnderway DataData graphs

EquipmentUnitsComment
TimeDGPSUTC
LatitudeDGPSDM.mWGS84
LongitudeDGPSDM.mWGS84
HeadingGyrodeg 
SOGDGPSknotsSpeed over ground
COGDGPSdegCourse over ground
DepthEcho soundermeters200 kHz
Missing or incorrect values are displayed as -999
Navigation data collected by the RV Zeeleeuw from 2003-04-10 06:47:10 to 2003-04-10 14:06:13
Time Latitude Longitude Heading SOG COG Depth
2003-04-10 06:48:14 51°13.6 2°56.1 114.6 0.1 235 9.6
2003-04-10 06:49:14 51°13.61 2°56.05 112.8 3.2 291 -999
2003-04-10 06:50:14 51°13.64 2°55.95 119.3 4.4 295 -999
2003-04-10 06:51:14 51°13.66 2°55.86 113.8 3.5 288 -999
2003-04-10 06:52:14 51°13.68 2°55.78 121.2 1.9 295 12.8
2003-04-10 06:53:14 51°13.68 2°55.79 81.1 0.2 78 12.9
2003-04-10 06:54:14 51°13.68 2°55.76 74.4 0.8 264 -999
2003-04-10 06:55:14 51°13.7 2°55.77 11.4 2.5 4 13
2003-04-10 06:56:14 51°13.75 2°55.72 324.2 4.5 321 11.5
2003-04-10 06:57:14 51°13.83 2°55.63 333.3 6.8 329 11.9
2003-04-10 06:58:14 51°13.95 2°55.54 341.3 7.9 337 11.8
2003-04-10 06:59:14 51°14.07 2°55.46 342.1 8.3 337 11.4
2003-04-10 07:00:14 51°14.2 2°55.35 331.3 8.5 327 11.9
2003-04-10 07:01:14 51°14.3 2°55.18 312 9.9 307 12.1
2003-04-10 07:02:14 51°14.41 2°54.97 321.1 10.5 318 12.3
2003-04-10 07:03:14 51°14.57 2°54.83 333.8 11.3 332 11.6
2003-04-10 07:04:14 51°14.74 2°54.67 331.3 12.1 329 11.2
2003-04-10 07:05:14 51°14.92 2°54.51 329.7 12.2 329 11
2003-04-10 07:06:14 51°15.09 2°54.34 329.6 12.3 328 10.7
2003-04-10 07:07:14 51°15.27 2°54.16 327.7 13.2 325 11.2
2003-04-10 07:08:14 51°15.45 2°53.96 327.8 13.8 326 11.7
2003-04-10 07:09:14 51°15.64 2°53.75 328 13.9 326 12.6
2003-04-10 07:10:14 51°15.84 2°53.54 328 14 326 13.3
2003-04-10 07:11:14 51°16.03 2°53.34 328.4 14 327 13.6
2003-04-10 07:12:14 51°16.23 2°53.15 334.5 14.1 332 13.7
2003-04-10 07:13:14 51°16.44 2°52.98 334.5 13.9 333 13.7
2003-04-10 07:14:14 51°16.64 2°52.81 334.4 13.9 333 13.2
2003-04-10 07:15:14 51°16.85 2°52.66 340.1 14 339 11.4
2003-04-10 07:16:14 51°17.08 2°52.55 347.2 14.2 346 11.5
2003-04-10 07:17:14 51°17.31 2°52.49 353.4 14.3 351 11.8
2003-04-10 07:18:14 51°17.55 2°52.43 353.1 14.3 351 12.1
2003-04-10 07:19:14 51°17.79 2°52.4 0.6 14.3 358 12.1
2003-04-10 07:20:14 51°18.02 2°52.43 12.3 14.2 10 12.2
2003-04-10 07:21:14 51°18.24 2°52.59 36.5 14.5 33 12.8
2003-04-10 07:22:14 51°18.44 2°52.8 39.2 14.6 35 12.9
2003-04-10 07:23:14 51°18.63 2°53.04 42.5 14.4 38 13.1
2003-04-10 07:24:14 51°18.81 2°53.29 48.6 14.4 46 13.5
2003-04-10 07:25:14 51°18.97 2°53.58 53.8 14.5 50 13.5
2003-04-10 07:26:14 51°19.13 2°53.87 53.7 14.3 48 13.8
2003-04-10 07:27:14 51°19.25 2°54.19 69.7 14.3 64 13.7
2003-04-10 07:28:14 51°19.35 2°54.53 70.6 14.3 65 13.4
2003-04-10 07:29:14 51°19.46 2°54.87 69.3 14.2 63 13.5
2003-04-10 07:30:14 51°19.56 2°55.21 71.5 14.2 65 13.8
2003-04-10 07:31:14 51°19.66 2°55.55 70.9 14.3 65 13.7
2003-04-10 07:32:14 51°19.75 2°55.91 76.8 14.2 71 13.6
2003-04-10 07:33:14 51°19.82 2°56.26 76.9 14.2 71 13.3
2003-04-10 07:34:14 51°19.9 2°56.62 76.7 14.2 71 13.4
2003-04-10 07:35:14 51°19.98 2°56.97 77.4 14.2 71 13.1
2003-04-10 07:36:14 51°20.06 2°57.33 76.9 14.1 71 13.1
2003-04-10 07:37:14 51°20.14 2°57.68 76.8 14.1 71 13.2
2003-04-10 07:38:14 51°20.22 2°58.04 76.3 14.2 70 12.8
2003-04-10 07:39:14 51°20.3 2°58.39 76.7 14.2 71 12.8
2003-04-10 07:40:14 51°20.38 2°58.75 76.5 14.2 70 12.4
2003-04-10 07:41:14 51°20.46 2°59.1 76.6 14.1 70 12.2
2003-04-10 07:42:14 51°20.54 2°59.45 77.3 14 70 12.3
2003-04-10 07:43:14 51°20.62 2°59.8 75.7 14 69 12.1
2003-04-10 07:44:14 51°20.7 3°0.15 76.4 14.1 70 12.1
2003-04-10 07:45:14 51°20.78 3°0.5 76.5 14.2 69 12.1
2003-04-10 07:46:14 51°20.86 3°0.85 76.5 14 70 12.1
2003-04-10 07:47:14 51°20.94 3°1.2 75.5 14 69 12
2003-04-10 07:48:14 51°21.02 3°1.55 76.1 13.9 70 12.2
2003-04-10 07:49:14 51°21.1 3°1.9 75.9 13.9 70 12.1
2003-04-10 07:50:14 51°21.18 3°2.25 75.4 14 70 12.1
2003-04-10 07:51:14 51°21.26 3°2.6 76.6 14.1 70 12.3
2003-04-10 07:52:14 51°21.34 3°2.95 77.1 14.1 70 12.4
2003-04-10 07:53:14 51°21.42 3°3.31 76.5 14.1 70 12.4
2003-04-10 07:54:14 51°21.5 3°3.66 76.3 14.1 70 12.5
2003-04-10 07:55:14 51°21.58 3°4.01 76.7 14 70 12.6
2003-04-10 07:56:14 51°21.66 3°4.36 75.8 14 70 12.6
2003-04-10 07:57:14 51°21.74 3°4.71 76.5 13.9 70 12.7
2003-04-10 07:58:14 51°21.82 3°5.05 75.9 13.8 70 12.8
2003-04-10 07:59:14 51°21.89 3°5.4 76.2 13.9 70 12.9
2003-04-10 08:00:14 51°21.97 3°5.75 76.7 13.8 71 13.1
2003-04-10 08:01:14 51°22.05 3°6.09 76.8 13.8 71 13.2
2003-04-10 08:02:14 51°22.12 3°6.44 75.9 13.7 70 13.5
2003-04-10 08:03:14 51°22.2 3°6.78 76.1 13.8 70 13.7
2003-04-10 08:04:14 51°22.28 3°7.12 75.8 13.6 70 13.7
2003-04-10 08:05:14 51°22.35 3°7.46 76.5 13.5 70 13.6
2003-04-10 08:06:14 51°22.43 3°7.8 76.5 13.6 70 14
2003-04-10 08:07:14 51°22.5 3°8.15 80.1 13.6 75 13.9
2003-04-10 08:08:14 51°22.54 3°8.5 84.4 13.6 80 14
2003-04-10 08:09:14 51°22.58 3°8.86 84.9 13.6 80 14
2003-04-10 08:10:14 51°22.62 3°9.22 83.7 13.6 79 14.4
2003-04-10 08:11:14 51°22.67 3°9.57 85.2 13.5 80 14.4
2003-04-10 08:12:14 51°22.71 3°9.92 84.8 13.5 80 18.5
2003-04-10 08:13:14 51°22.74 3°10.27 86.2 13.3 80 16.7
2003-04-10 08:14:14 51°22.78 3°10.63 86.7 13.3 82 15.7
2003-04-10 08:15:14 51°22.8 3°10.98 87.8 13.3 84 15.3
2003-04-10 08:16:14 51°22.83 3°11.33 88.8 13.4 84 15.1
2003-04-10 08:17:14 51°22.85 3°11.68 88.1 13.4 83 14.7
2003-04-10 08:18:14 51°22.88 3°12.04 89.2 13.3 84 14.2
2003-04-10 08:19:14 51°22.9 3°12.39 88.1 13.4 84 13.5
2003-04-10 08:20:14 51°22.92 3°12.75 88.2 13.3 84 13
2003-04-10 08:21:14 51°22.95 3°13.1 88.3 13.4 84 12.7
2003-04-10 08:22:14 51°22.97 3°13.45 88.5 13.3 84 12.2
2003-04-10 08:23:14 51°23 3°13.81 88.5 13.4 85 11.9
2003-04-10 08:24:14 51°23.02 3°14.16 88.2 13.4 85 11.7
2003-04-10 08:25:14 51°23.04 3°14.51 88.2 13.3 84 11.2
2003-04-10 08:26:14 51°23.06 3°14.87 88 13.3 85 10.7
2003-04-10 08:27:14 51°23.08 3°15.22 87.8 13.2 85 10.2
2003-04-10 08:28:14 51°23.1 3°15.57 88.4 13.1 85 9.8
2003-04-10 08:29:14 51°23.12 3°15.92 88.3 13 84 9.8
2003-04-10 08:30:14 51°23.14 3°16.26 88.1 13.1 84 9.4
2003-04-10 08:31:14 51°23.16 3°16.61 88.3 13 85 9.5
2003-04-10 08:32:14 51°23.18 3°16.96 88.4 13.2 85 9.4
2003-04-10 08:33:14 51°23.2 3°17.31 88.5 13.1 84 9.4
2003-04-10 08:34:14 51°23.24 3°17.65 83.4 13 79 9.5
2003-04-10 08:35:14 51°23.29 3°17.99 79.5 13.2 75 10.5
2003-04-10 08:36:14 51°23.4 3°18.29 55.3 13 46 11
2003-04-10 08:37:14 51°23.6 3°18.4 24.2 13.4 16 11.8
2003-04-10 08:38:14 51°23.81 3°18.53 30 13.5 22 13.5
2003-04-10 08:39:14 51°24.02 3°18.68 31.9 13.5 23 15.2
2003-04-10 08:40:14 51°24.23 3°18.8 31 13.7 22 17.9
2003-04-10 08:41:14 51°24.43 3°18.97 37.4 13.7 30 20
2003-04-10 08:42:14 51°24.61 3°19.18 47.1 13.4 39 17
2003-04-10 08:43:14 51°24.76 3°19.44 65.6 13.2 60 14.8
2003-04-10 08:44:14 51°24.84 3°19.76 76.1 13.1 71 13.7
2003-04-10 08:45:14 51°24.91 3°20.09 77 12.9 71 12.9
2003-04-10 08:46:14 51°24.98 3°20.41 76.9 12.6 72 11.6
2003-04-10 08:47:14 51°25.04 3°20.73 76.6 12.6 72 11.4
2003-04-10 08:48:14 51°25.11 3°21.05 76.9 12.2 72 8.7
2003-04-10 08:49:14 51°25.18 3°21.37 76.2 12.8 70 10
2003-04-10 08:50:14 51°25.25 3°21.69 76.1 12.9 70 11.6
2003-04-10 08:51:14 51°25.32 3°22.01 74.8 12.7 69 12.4
2003-04-10 08:52:14 51°25.37 3°22.24 90.7 5.9 86 13.1
2003-04-10 08:53:14 51°25.36 3°22.33 114.8 2.8 118 13.2
2003-04-10 08:54:14 51°25.33 3°22.37 121 1.7 136 13.2
2003-04-10 08:55:14 51°25.32 3°22.4 114.6 1 142 13
2003-04-10 08:56:14 51°25.31 3°22.41 106.7 0.5 147 13
2003-04-10 08:57:14 51°25.3 3°22.41 99.9 0.2 184 13
2003-04-10 08:58:14 51°25.3 3°22.4 95.7 0.5 258 13
2003-04-10 08:59:14 51°25.3 3°22.38 101.6 1 261 12.9
2003-04-10 09:00:14 51°25.3 3°22.35 106.7 1.3 265 12.9
2003-04-10 09:01:14 51°25.29 3°22.31 117.6 1.6 268 12.9
2003-04-10 09:02:14 51°25.3 3°22.26 134.5 1.7 275 12.9
2003-04-10 09:03:14 51°25.3 3°22.22 143.7 1.5 275 12.8
2003-04-10 09:04:14 51°25.29 3°22.19 132.2 0.8 223 12.8
2003-04-10 09:05:14 51°25.29 3°22.2 83.4 0.9 65 12.6
2003-04-10 09:06:14 51°25.32 3°22.21 23.8 2.7 348 12.8
2003-04-10 09:07:14 51°25.38 3°22.16 344.8 4.5 322 12.8
2003-04-10 09:08:14 51°25.44 3°22.08 349.1 5.4 328 12
2003-04-10 09:09:14 51°25.53 3°22.02 0.8 5.4 339 11.1
2003-04-10 09:10:14 51°25.61 3°21.99 23.7 4.3 359 9.4
2003-04-10 09:11:14 51°25.65 3°22.01 59 2.3 27 9.3
2003-04-10 09:12:14 51°25.67 3°22.04 89.2 1.3 67 9.5
2003-04-10 09:13:14 51°25.68 3°22.08 85.5 1.8 69 9.5
2003-04-10 09:14:14 51°25.7 3°22.13 80.3 2.1 62 9.9
2003-04-10 09:15:14 51°25.71 3°22.19 93.6 2.1 82 10
2003-04-10 09:16:14 51°25.71 3°22.24 92.1 2.1 82 9.9
2003-04-10 09:17:14 51°25.72 3°22.3 89.3 2.2 77 10
2003-04-10 09:18:14 51°25.72 3°22.35 91.8 2.2 81 10.1
2003-04-10 09:19:14 51°25.73 3°22.41 99.5 2.2 93 9.9
2003-04-10 09:20:14 51°25.72 3°22.47 99.8 2.2 94 9.8
2003-04-10 09:21:14 51°25.72 3°22.53 97.9 2.2 90 9.6
2003-04-10 09:22:14 51°25.73 3°22.59 97.2 2.2 89 9.5
2003-04-10 09:23:14 51°25.73 3°22.65 95.8 2.2 87 9.4
2003-04-10 09:24:14 51°25.73 3°22.7 96 2.1 88 9.4
2003-04-10 09:25:14 51°25.73 3°22.76 93.5 2.1 83 9.4
2003-04-10 09:26:14 51°25.73 3°22.82 92.1 2.2 82 9.3
2003-04-10 09:27:14 51°25.74 3°22.88 90 2.2 78 9.3
2003-04-10 09:28:14 51°25.75 3°22.93 92.3 2.2 82 9.4
2003-04-10 09:29:14 51°25.75 3°22.99 98.1 2.2 94 9.3
2003-04-10 09:30:14 51°25.75 3°23.05 97.2 2.2 92 9.2
2003-04-10 09:31:14 51°25.74 3°23.11 98.5 2.2 94 9.1
2003-04-10 09:32:14 51°25.74 3°23.16 96.6 2.2 92 9.2
2003-04-10 09:33:14 51°25.75 3°23.22 93.7 2.1 83 9.1
2003-04-10 09:34:14 51°25.75 3°23.28 95.9 2.1 87 9.1
2003-04-10 09:35:14 51°25.75 3°23.33 95.6 2.2 88 9.1
2003-04-10 09:36:14 51°25.75 3°23.39 97.2 2.2 90 9
2003-04-10 09:37:14 51°25.75 3°23.45 98.3 2.1 92 9.1
2003-04-10 09:38:14 51°25.75 3°23.51 97.5 2.1 91 9.3
2003-04-10 09:39:14 51°25.75 3°23.56 94.7 2.1 87 9.4
2003-04-10 09:40:14 51°25.76 3°23.62 91.3 2.2 81 9.5
2003-04-10 09:41:14 51°25.76 3°23.68 95 2.2 88 9.6
2003-04-10 09:42:14 51°25.75 3°23.74 107.7 2.2 110 9.8
2003-04-10 09:43:14 51°25.73 3°23.78 125.2 2.1 141 10.3
2003-04-10 09:44:14 51°25.7 3°23.8 139.6 2.2 166 10.7
2003-04-10 09:45:14 51°25.66 3°23.8 165.1 2.7 196 11.7
2003-04-10 09:46:14 51°25.61 3°23.75 195.3 3.4 224 12.4
2003-04-10 09:47:14 51°25.58 3°23.68 209 3.2 236 13.1
2003-04-10 09:48:14 51°25.55 3°23.61 216.3 3.1 243 13.7
2003-04-10 09:49:14 51°25.53 3°23.54 219 2.9 247 13.8
2003-04-10 09:50:14 51°25.52 3°23.46 221.1 2.8 251 13.8
2003-04-10 09:51:14 51°25.5 3°23.39 223 3.2 249 13.8
2003-04-10 09:52:14 51°25.5 3°23.26 297.1 5.8 288 13.4
2003-04-10 09:53:14 51°25.57 3°23.19 19.6 4.5 354 12.2
2003-04-10 09:54:14 51°25.6 3°23.24 100.8 2.3 99 11.7
2003-04-10 09:55:14 51°25.58 3°23.26 133.7 1 201 12.2
2003-04-10 09:56:14 51°25.58 3°23.23 159.6 1.5 268 12.2
2003-04-10 09:57:14 51°25.57 3°23.19 170.6 1.5 264 11.9
2003-04-10 09:58:14 51°25.57 3°23.15 180.1 1.6 261 12.1
2003-04-10 09:59:14 51°25.57 3°23.1 186.5 1.7 259 11.8
2003-04-10 10:00:14 51°25.56 3°23.06 190.4 1.7 257 11.9
2003-04-10 10:01:14 51°25.55 3°23.01 191.6 1.8 256 11.9
2003-04-10 10:02:14 51°25.54 3°22.96 193.2 1.9 254 12
2003-04-10 10:03:14 51°25.53 3°22.92 193.7 1.9 251 12
2003-04-10 10:04:14 51°25.52 3°22.87 189 2 245 12.1
2003-04-10 10:05:14 51°25.51 3°22.82 183.2 2 240 12.2
2003-04-10 10:06:14 51°25.49 3°22.77 172.3 1.8 235 12.3
2003-04-10 10:07:14 51°25.47 3°22.74 161.8 1.7 230 12.4
2003-04-10 10:08:14 51°25.45 3°22.71 148.7 1.4 225 12.5
2003-04-10 10:09:14 51°25.44 3°22.68 135.7 1.1 221 12.6
2003-04-10 10:10:14 51°25.43 3°22.67 126.4 0.9 220 12.6
2003-04-10 10:11:14 51°25.42 3°22.65 119 0.8 229 12.7
2003-04-10 10:12:14 51°25.41 3°22.63 116.7 0.8 238 12.7
2003-04-10 10:13:14 51°25.4 3°22.61 115.3 0.9 243 12.8
2003-04-10 10:14:14 51°25.4 3°22.59 115.5 0.9 247 12.7
2003-04-10 10:15:14 51°25.39 3°22.57 115.4 1 248 12.7
2003-04-10 10:16:14 51°25.38 3°22.54 115.3 1 251 12.7
2003-04-10 10:17:14 51°25.38 3°22.52 114.5 1 252 12.5
2003-04-10 10:18:14 51°25.37 3°22.49 113.5 1 252 12.6
2003-04-10 10:19:14 51°25.37 3°22.47 111.7 1 254 12.5
2003-04-10 10:20:14 51°25.36 3°22.44 111.6 0.8 242 12.5
2003-04-10 10:21:14 51°25.3 3°22.49 147.5 7 158 12.3
2003-04-10 10:22:14 51°25.19 3°22.42 223.7 7.9 228 10.7
2003-04-10 10:23:14 51°25.1 3°22.24 226.1 10.1 227 10
2003-04-10 10:24:14 51°24.91 3°22.05 204.6 14.4 207 13.8
2003-04-10 10:25:14 51°24.71 3°21.85 212.6 14.8 216 14.7
2003-04-10 10:26:14 51°24.5 3°21.62 208.6 14.8 213 18.3
2003-04-10 10:27:14 51°24.29 3°21.43 199.3 14.4 203 18.5
2003-04-10 10:28:14 51°24.09 3°21.32 193.2 11.6 200 16
2003-04-10 10:29:14 51°23.97 3°21.15 230 9 234 14.9
2003-04-10 10:30:14 51°23.9 3°20.99 226.5 6.9 234 14.3
2003-04-10 10:31:14 51°23.83 3°20.86 217.3 5.6 229 13.8
2003-04-10 10:32:14 51°23.78 3°20.77 199.4 4 221 13.2
2003-04-10 10:33:14 51°23.73 3°20.72 183.9 3 216 13
2003-04-10 10:34:14 51°23.7 3°20.68 175.4 2.5 218 12.8
2003-04-10 10:35:14 51°23.67 3°20.64 169.3 2.2 221 12.5
2003-04-10 10:36:14 51°23.64 3°20.6 165.3 2 225 12.4
2003-04-10 10:37:14 51°23.62 3°20.56 162.5 1.9 228 12.2
2003-04-10 10:38:14 51°23.6 3°20.53 160.4 1.8 232 12
2003-04-10 10:39:14 51°23.58 3°20.49 157.9 1.8 233 12
2003-04-10 10:40:14 51°23.57 3°20.45 156 1.8 236 11.7
2003-04-10 10:41:14 51°23.55 3°20.41 154.2 1.8 238 11.7
2003-04-10 10:42:14 51°23.53 3°20.37 153.8 1.7 239 11.6
2003-04-10 10:43:14 51°23.52 3°20.33 152.4 1.7 240 11.5
2003-04-10 10:44:14 51°23.51 3°20.29 151.3 1.7 241 11.4
2003-04-10 10:45:14 51°23.49 3°20.25 150.6 1.7 242 11.4
2003-04-10 10:46:14 51°23.48 3°20.21 150.4 1.7 243 11.1
2003-04-10 10:47:14 51°23.47 3°20.17 149.5 1.7 243 11.2
2003-04-10 10:48:14 51°23.45 3°20.13 149.8 1.7 243 11.2
2003-04-10 10:49:14 51°23.44 3°20.09 151.3 1.7 242 10.9
2003-04-10 10:50:14 51°23.43 3°20.05 156.3 1.8 243 10.8
2003-04-10 10:51:14 51°23.41 3°20.01 162.3 1.8 243 10.7
2003-04-10 10:52:14 51°23.4 3°19.96 169.2 1.9 243 10.5
2003-04-10 10:53:14 51°23.38 3°19.92 175.3 2 242 10.5
2003-04-10 10:54:14 51°23.37 3°19.87 182 2.1 243 10.3
2003-04-10 10:55:14 51°23.35 3°19.82 190.3 2.2 244 10.2
2003-04-10 10:56:14 51°23.34 3°19.76 197.6 2.2 245 9.9
2003-04-10 10:57:14 51°23.32 3°19.71 205.2 2.3 246 9.8
2003-04-10 10:58:14 51°23.31 3°19.65 216.2 2.6 247 9.6
2003-04-10 10:59:14 51°23.29 3°19.58 232.9 2.9 250 9.6
2003-04-10 11:00:14 51°23.28 3°19.48 280.2 4.8 274 9.5
2003-04-10 11:01:14 51°23.33 3°19.37 350.5 5.1 328 10
2003-04-10 11:02:14 51°23.41 3°19.3 335.2 6.2 315 10.7
2003-04-10 11:03:14 51°23.46 3°19.13 300.9 7.6 290 10.8
2003-04-10 11:04:14 51°23.5 3°18.92 295.4 8.2 287 10.7
2003-04-10 11:05:14 51°23.54 3°18.73 310.1 6.7 298 10.9
2003-04-10 11:06:14 51°23.6 3°18.63 353.6 4.3 327 11.1
2003-04-10 11:07:14 51°23.66 3°18.61 41.5 3 9 11.4
2003-04-10 11:08:14 51°23.68 3°18.66 91.9 2.2 83 11.5
2003-04-10 11:09:14 51°23.67 3°18.73 97.5 2.7 95 11.5
2003-04-10 11:10:14 51°23.68 3°18.8 87 3 80 11.5
2003-04-10 11:11:14 51°23.69 3°18.88 83.3 2.8 73 11.6
2003-04-10 11:12:14 51°23.7 3°18.94 85 2.3 72 11.8
2003-04-10 11:13:14 51°23.71 3°19 85.3 2.1 73 11.9
2003-04-10 11:14:14 51°23.72 3°19.05 83.3 2 70 11.9
2003-04-10 11:15:14 51°23.73 3°19.1 89.8 2 81 12.1
2003-04-10 11:16:14 51°23.74 3°19.15 87.6 2 78 12.1
2003-04-10 11:17:14 51°23.74 3°19.21 88.5 2 80 12.1
2003-04-10 11:18:14 51°23.75 3°19.26 90.6 2 85 12.2
2003-04-10 11:19:14 51°23.75 3°19.31 91.9 2 87 12.2
2003-04-10 11:20:14 51°23.75 3°19.36 92.2 2 88 12.2
2003-04-10 11:21:14 51°23.75 3°19.42 94.5 2 92 12.3
2003-04-10 11:22:14 51°23.74 3°19.47 101 2 106 12.3
2003-04-10 11:23:14 51°23.74 3°19.52 98.1 1.9 102 12.2
2003-04-10 11:24:14 51°23.73 3°19.57 93.7 1.9 91 12.2
2003-04-10 11:25:14 51°23.73 3°19.62 92.5 1.9 90 12.3
2003-04-10 11:26:14 51°23.73 3°19.67 91.4 1.9 85 12.3
2003-04-10 11:27:14 51°23.73 3°19.73 92.8 2 91 12.3
2003-04-10 11:28:14 51°23.73 3°19.78 101.3 2.1 106 12.3
2003-04-10 11:29:14 51°23.71 3°19.83 100.5 2.2 106 12.2
2003-04-10 11:30:14 51°23.71 3°19.89 96.4 2.2 98 12.2
2003-04-10 11:31:14 51°23.7 3°19.95 96.4 2.2 98 12.2
2003-04-10 11:32:14 51°23.7 3°20.01 91.1 2.2 88 12.2
2003-04-10 11:33:14 51°23.7 3°20.07 93.2 2.2 92 12.2
2003-04-10 11:34:14 51°23.7 3°20.13 85.6 2.3 77 12.2
2003-04-10 11:35:14 51°23.71 3°20.19 88.8 2.3 84 12.4
2003-04-10 11:36:14 51°23.71 3°20.25 87.8 2.3 83 12.4
2003-04-10 11:37:14 51°23.72 3°20.31 91.5 2.4 90 12.5
2003-04-10 11:38:14 51°23.71 3°20.38 95.8 2.5 97 12.5
2003-04-10 11:39:14 51°23.71 3°20.44 93.9 2.5 95 12.4
2003-04-10 11:40:14 51°23.71 3°20.51 93.8 2.5 94 12.4
2003-04-10 11:41:14 51°23.7 3°20.58 94.6 2.5 97 12.4
2003-04-10 11:42:14 51°23.69 3°20.64 99.4 2.5 104 12.3
2003-04-10 11:43:14 51°23.68 3°20.71 103.4 2.4 113 12.3
2003-04-10 11:44:14 51°23.66 3°20.75 107.6 1.7 126 12.2
2003-04-10 11:45:14 51°23.64 3°20.78 114.3 1.4 146 12.1
2003-04-10 11:46:14 51°23.62 3°20.8 110.2 1.6 134 11.9
2003-04-10 11:47:14 51°23.61 3°20.85 87.8 2.1 85 12
2003-04-10 11:48:14 51°23.62 3°20.89 70.9 1.1 54 12
2003-04-10 11:49:14 51°23.63 3°20.9 60.7 0.7 13 12.1
2003-04-10 11:50:14 51°23.64 3°20.9 54.7 0.6 334 12.2
2003-04-10 11:51:14 51°23.65 3°20.89 51.5 0.6 305 12.1
2003-04-10 11:52:14 51°23.65 3°20.87 46.4 0.7 291 12.3
2003-04-10 11:53:14 51°23.66 3°20.85 43.6 0.8 282 12.3
2003-04-10 11:54:14 51°23.66 3°20.83 42.5 0.8 274 12.3
2003-04-10 11:55:14 51°23.66 3°20.81 43.5 0.8 269 12.2
2003-04-10 11:56:14 51°23.66 3°20.79 44.9 0.8 264 12.3
2003-04-10 11:57:14 51°23.66 3°20.77 44.8 0.8 266 12.3
2003-04-10 11:58:14 51°23.66 3°20.75 43.5 0.8 267 12.2
2003-04-10 11:59:14 51°23.66 3°20.73 42.1 0.8 269 12.1
2003-04-10 12:00:14 51°23.65 3°20.7 40.6 0.8 273 12.2
2003-04-10 12:01:14 51°23.66 3°20.68 36 0.8 280 12.2
2003-04-10 12:02:14 51°23.66 3°20.66 32.5 0.8 285 12.1
2003-04-10 12:03:14 51°23.66 3°20.64 27.4 0.8 291 12.1
2003-04-10 12:04:14 51°23.67 3°20.62 21.7 0.9 293 12.2
2003-04-10 12:05:14 51°23.68 3°20.6 14.5 1 293 12.2
2003-04-10 12:06:14 51°23.68 3°20.57 6.5 1.1 293 12.3
2003-04-10 12:07:14 51°23.69 3°20.54 357.9 1.3 292 12.4
2003-04-10 12:08:14 51°23.7 3°20.51 343.1 1.5 287 12.4
2003-04-10 12:09:14 51°23.7 3°20.46 319.2 1.9 276 12.3
2003-04-10 12:10:14 51°23.7 3°20.41 295.1 2.2 266 12.4
2003-04-10 12:11:14 51°23.7 3°20.34 281.8 2.4 262 12.3
2003-04-10 12:12:14 51°23.69 3°20.28 272.4 2.5 260 12.2
2003-04-10 12:13:14 51°23.68 3°20.21 265.5 2.6 258 12.2
2003-04-10 12:14:14 51°23.67 3°20.15 259.6 2.7 256 12.1
2003-04-10 12:15:14 51°23.66 3°20.08 255.8 2.6 254 12
2003-04-10 12:16:14 51°23.65 3°20.02 256.2 2.4 254 11.9
2003-04-10 12:17:14 51°23.64 3°19.96 264 2.1 256 11.9
2003-04-10 12:18:14 51°23.63 3°19.91 274.6 1.7 256 11.7
2003-04-10 12:19:14 51°23.63 3°19.87 280.6 1.5 251 11.5
2003-04-10 12:20:14 51°23.62 3°19.84 275.9 1.4 246 11.6
2003-04-10 12:21:14 51°23.61 3°19.8 263.8 1.4 245 11.6
2003-04-10 12:22:14 51°23.6 3°19.77 256.3 1.4 246 11.4
2003-04-10 12:23:14 51°23.59 3°19.73 251.9 1.5 248 11.4
2003-04-10 12:24:14 51°23.58 3°19.7 249.9 1.5 246 11.2
2003-04-10 12:25:14 51°23.57 3°19.66 248.2 1.6 246 11.1
2003-04-10 12:26:14 51°23.56 3°19.62 250.2 1.6 248 11.2
2003-04-10 12:27:14 51°23.55 3°19.58 254.7 1.6 250 11.1
2003-04-10 12:28:14 51°23.54 3°19.54 260 1.6 252 11.1
2003-04-10 12:29:14 51°23.53 3°19.5 264.9 1.6 253 11.1
2003-04-10 12:30:14 51°23.52 3°19.46 268.9 1.6 254 11
2003-04-10 12:31:14 51°23.52 3°19.41 270.2 1.6 255 10.8
2003-04-10 12:32:15 51°23.51 3°19.36 267 3.3 259 10.9
2003-04-10 12:33:13 51°23.48 3°19.12 261.2 13.2 258 10.7
2003-04-10 12:34:15 51°23.43 3°18.73 262 14.7 259 10.2
2003-04-10 12:35:15 51°23.38 3°18.34 262 14.7 259 9.7
2003-04-10 12:36:13 51°23.33 3°17.97 262.5 14.6 259 9
2003-04-10 12:37:13 51°23.28 3°17.6 262.4 14.4 259 8.5
2003-04-10 12:38:15 51°23.24 3°17.21 263.9 14.1 260 8.1
2003-04-10 12:39:15 51°23.2 3°16.84 264 14.1 260 7.9
2003-04-10 12:40:13 51°23.14 3°16.49 261.3 14.1 259 7.9
2003-04-10 12:41:15 51°23.11 3°16.11 262.8 14.1 258 8
2003-04-10 12:42:15 51°23.06 3°15.74 265.7 14.2 262 8.2
2003-04-10 12:43:15 51°23.02 3°15.37 263.4 14.3 260 8.5
2003-04-10 12:44:13 51°22.98 3°15 264.9 14.4 260 8.7
2003-04-10 12:45:15 51°22.93 3°14.61 263.9 14.5 259 9.3
2003-04-10 12:46:15 51°22.89 3°14.23 264.1 14.5 259 10
2003-04-10 12:47:13 51°22.85 3°13.86 263.8 14.6 260 10.4
2003-04-10 12:48:15 51°22.8 3°13.47 264.5 14.7 259 10.9
2003-04-10 12:49:15 51°22.76 3°13.08 264.4 14.7 260 11.7
2003-04-10 12:50:15 51°22.71 3°12.7 264.1 14.7 260 12.6
2003-04-10 12:51:13 51°22.67 3°12.32 264.2 14.7 262 13.4
2003-04-10 12:52:15 51°22.68 3°11.92 282.3 14.6 277 13.9
2003-04-10 12:53:15 51°22.74 3°11.55 291.5 14.4 284 13.8
2003-04-10 12:54:13 51°22.79 3°11.18 290.3 14.4 283 13.9
2003-04-10 12:55:13 51°22.87 3°10.83 300.4 14.3 292 13.7
2003-04-10 12:56:15 51°22.96 3°10.46 296 14.3 288 13.5
2003-04-10 12:57:13 51°23.02 3°10.11 291.9 14.3 285 13.8
2003-04-10 12:58:15 51°23.03 3°9.72 264.6 14.2 259 15.4
2003-04-10 12:59:13 51°22.93 3°9.39 238.2 14.3 237 14.6
2003-04-10 13:00:15 51°22.79 3°9.07 236.9 14.6 236 12.9
2003-04-10 13:01:15 51°22.66 3°8.74 242.1 14.7 239 12.6
2003-04-10 13:02:13 51°22.54 3°8.41 242.1 14.7 240 12.5
2003-04-10 13:03:15 51°22.42 3°8.06 247 14.6 241 12.3
2003-04-10 13:04:15 51°22.3 3°7.72 243.6 14.7 241 12.2
2003-04-10 13:05:15 51°22.18 3°7.38 244.5 14.7 240 12
2003-04-10 13:06:13 51°22.07 3°7.05 243.6 14.6 241 11.8
2003-04-10 13:07:15 51°21.94 3°6.7 245.4 14.7 240 11.4
2003-04-10 13:08:15 51°21.83 3°6.35 247.7 14.8 244 11.3
2003-04-10 13:09:13 51°21.73 3°6 250.4 14.9 246 10.9
2003-04-10 13:10:15 51°21.63 3°5.63 251.7 14.8 247 10.6
2003-04-10 13:11:15 51°21.54 3°5.27 251.2 14.7 247 10.4
2003-04-10 13:12:13 51°21.44 3°4.92 250.4 14.7 247 10.4
2003-04-10 13:13:15 51°21.34 3°4.55 251.6 14.8 246 10.3
2003-04-10 13:14:15 51°21.24 3°4.19 249.2 14.7 245 9.9
2003-04-10 13:15:15 51°21.14 3°3.83 251.1 14.7 247 9.7
2003-04-10 13:16:15 51°21.04 3°3.47 251.1 14.8 247 9.7
2003-04-10 13:17:15 51°20.94 3°3.11 249.3 14.7 246 9.6
2003-04-10 13:18:15 51°20.84 3°2.75 251.2 14.7 246 9.5
2003-04-10 13:19:15 51°20.74 3°2.4 250.2 14.7 245 9.5
2003-04-10 13:20:13 51°20.64 3°2.05 250.1 14.7 246 9.3
2003-04-10 13:21:15 51°20.54 3°1.68 249.6 14.7 245 9.2
2003-04-10 13:22:14 51°20.44 3°1.33 249.6 14.7 247 9.2
2003-04-10 13:23:15 51°20.34 3°0.97 250 14.6 247 9.1
2003-04-10 13:24:13 51°20.25 3°0.63 252.2 14.6 247 9.1
2003-04-10 13:25:15 51°20.15 3°0.26 251.2 14.7 247 9.2
2003-04-10 13:26:15 51°20.06 2°59.9 250.8 14.7 247 9.2
2003-04-10 13:27:13 51°19.96 2°59.55 251.1 14.7 247 9.2
2003-04-10 13:28:15 51°19.86 2°59.18 251.5 14.7 247 9.5
2003-04-10 13:29:15 51°19.77 2°58.82 252 14.8 247 9.5
2003-04-10 13:30:15 51°19.67 2°58.46 250.3 14.8 247 9.5
2003-04-10 13:31:15 51°19.57 2°58.1 250.7 14.8 248 9.7
2003-04-10 13:32:15 51°19.48 2°57.74 251 14.8 247 9.8
2003-04-10 13:33:15 51°19.38 2°57.38 250.4 14.7 247 9.9
2003-04-10 13:34:15 51°19.28 2°57.02 251.7 14.8 247 10.2
2003-04-10 13:35:15 51°19.18 2°56.66 251.6 14.6 246 10.4
2003-04-10 13:36:15 51°19.09 2°56.3 252.3 14.6 247 10.5
2003-04-10 13:37:15 51°19 2°55.94 252.5 14.6 249 10.8
2003-04-10 13:38:15 51°18.91 2°55.58 253.3 14.8 249 10.8
2003-04-10 13:39:15 51°18.82 2°55.21 252.6 14.7 249 10.8
2003-04-10 13:40:15 51°18.73 2°54.85 252 14.7 247 10.9
2003-04-10 13:41:15 51°18.64 2°54.49 252.6 14.7 248 10.8
2003-04-10 13:42:13 51°18.55 2°54.14 251.4 14.7 248 10.9
2003-04-10 13:43:15 51°18.45 2°53.76 253.1 14.6 250 11
2003-04-10 13:44:15 51°18.36 2°53.4 251.8 14.6 248 11
2003-04-10 13:45:15 51°18.27 2°53.04 253.3 14.8 248 11
2003-04-10 13:46:15 51°18.13 2°52.73 227.5 14.9 225 10.8
2003-04-10 13:47:15 51°17.93 2°52.51 208 15.2 205 10.4
2003-04-10 13:48:15 51°17.69 2°52.42 187.8 14.7 188 10.4
2003-04-10 13:49:15 51°17.45 2°52.37 189.1 15.1 189 10.6
2003-04-10 13:50:15 51°17.21 2°52.34 181.4 14.6 180 10.4
2003-04-10 13:51:15 51°16.97 2°52.41 163.6 14.2 163 9.8
2003-04-10 13:52:15 51°16.75 2°52.52 166.7 14.5 165 10.1
2003-04-10 13:53:15 51°16.52 2°52.63 165.1 14.7 164 11.7
2003-04-10 13:54:15 51°16.29 2°52.75 160.1 14.4 159 12.1
2003-04-10 13:55:15 51°16.1 2°52.95 142 13.6 142 12.2
2003-04-10 13:56:15 51°15.92 2°53.17 140.1 14 142 12
2003-04-10 13:57:13 51°15.74 2°53.39 142.8 14 143 11.7
2003-04-10 13:58:15 51°15.55 2°53.6 144.8 13.7 145 11
2003-04-10 13:59:15 51°15.36 2°53.81 145 13.7 145 10.1
2003-04-10 14:00:13 51°15.18 2°54.01 145.1 13.4 146 9.4
2003-04-10 14:01:15 51°14.99 2°54.22 143.6 13.1 145 8.9
2003-04-10 14:02:15 51°14.82 2°54.44 137.9 13.2 140 9.6
2003-04-10 14:03:15 51°14.65 2°54.65 143.2 12.7 143 9.6
2003-04-10 14:04:13 51°14.5 2°54.85 135.7 12.3 135 10
2003-04-10 14:05:15 51°14.35 2°55.1 134.2 12.4 131 10.5